createdAt,value
2023-02-02T00:02:50.030Z,100.00
2023-02-02T00:06:53.589Z,100.00
2023-02-02T00:10:57.599Z,100.00
2023-02-02T00:15:01.170Z,100.00
2023-02-02T00:19:08.026Z,100.00
2023-02-02T00:23:11.293Z,100.00
2023-02-02T00:27:14.600Z,100.00
2023-02-02T00:31:17.857Z,100.00
2023-02-02T00:35:25.075Z,100.00
2023-02-02T00:39:29.864Z,100.00
2023-02-02T00:43:32.674Z,100.00
2023-02-02T00:47:35.709Z,100.00
2023-02-02T00:51:40.726Z,100.00
2023-02-02T00:55:44.152Z,100.00
2023-02-02T00:59:47.403Z,100.00
2023-02-02T01:03:51.720Z,100.00
2023-02-02T01:07:56.391Z,100.00
2023-02-02T01:11:59.774Z,100.00
2023-02-02T01:16:04.017Z,100.00
2023-02-02T01:20:17.107Z,100.00
2023-02-02T01:24:21.318Z,100.00
2023-02-02T01:28:26.506Z,100.00
2023-02-02T01:32:29.712Z,100.00
2023-02-02T01:36:33.134Z,100.00
2023-02-02T01:40:37.661Z,100.00
2023-02-02T01:45:19.716Z,100.00
2023-02-02T01:49:23.596Z,100.00
2023-02-02T01:53:29.598Z,100.00
2023-02-02T01:57:39.199Z,100.00
2023-02-02T02:01:43.137Z,100.00
2023-02-02T02:05:50.552Z,100.00
2023-02-02T02:09:53.561Z,100.00
2023-02-02T02:14:29.822Z,100.00
2023-02-02T02:18:42.382Z,100.00
2023-02-02T02:23:22.304Z,100.00
2023-02-02T02:28:07.913Z,100.00
2023-02-02T02:32:28.945Z,100.00
2023-02-02T02:36:40.480Z,100.00
2023-02-02T02:40:49.361Z,100.00
2023-02-02T02:44:54.669Z,100.00
2023-02-02T02:49:01.324Z,100.00
2023-02-02T02:53:09.556Z,100.00
2023-02-02T02:57:32.082Z,100.00
2023-02-02T03:01:46.003Z,100.00
2023-02-02T03:05:57.141Z,100.00
2023-02-02T03:10:02.247Z,100.00
2023-02-02T03:14:09.824Z,100.00
2023-02-02T03:18:15.584Z,100.00
2023-02-02T03:22:21.310Z,100.00
2023-02-02T03:26:24.608Z,100.00
2023-02-02T03:30:29.291Z,100.00
2023-02-02T03:34:34.601Z,100.00
2023-02-02T03:38:39.076Z,100.00
2023-02-02T03:42:42.387Z,100.00
2023-02-02T03:46:45.474Z,100.00
2023-02-02T03:50:48.676Z,100.00
2023-02-02T03:54:53.287Z,100.00
2023-02-02T03:58:56.516Z,100.00
2023-02-02T04:03:00.288Z,100.00
2023-02-02T04:07:03.849Z,100.00
2023-02-02T04:11:11.424Z,100.00
2023-02-02T04:15:14.580Z,100.00
2023-02-02T04:19:18.241Z,100.00
2023-02-02T04:23:20.964Z,100.00
2023-02-02T04:27:25.528Z,100.00
2023-02-02T04:31:30.207Z,100.00
2023-02-02T04:35:33.415Z,100.00
2023-02-02T04:39:36.706Z,100.00
2023-02-02T04:43:41.614Z,100.00
2023-02-02T04:47:44.631Z,100.00
2023-02-02T04:51:47.863Z,100.00
2023-02-02T04:55:51.045Z,100.00
2023-02-02T04:59:55.615Z,100.00
2023-02-02T05:03:59.236Z,100.00
2023-02-02T05:08:02.163Z,100.00
2023-02-02T05:12:05.443Z,100.00
2023-02-02T05:16:10.147Z,100.00
2023-02-02T05:20:14.328Z,100.00
2023-02-02T05:24:17.857Z,100.00
2023-02-02T05:28:24.712Z,100.00
2023-02-02T05:32:30.103Z,100.00
2023-02-02T05:36:33.310Z,100.00
2023-02-02T05:40:37.680Z,100.00
2023-02-02T05:44:43.721Z,100.00
2023-02-02T05:48:48.223Z,100.00
2023-02-02T05:52:51.436Z,100.00
2023-02-02T05:56:56.280Z,100.00
2023-02-02T06:00:59.268Z,100.00
2023-02-02T06:05:03.957Z,100.00
2023-02-02T06:09:07.951Z,100.00
2023-02-02T06:13:10.753Z,100.00
2023-02-02T06:17:13.849Z,100.00
2023-02-02T06:21:20.048Z,100.00
2023-02-02T06:25:23.429Z,100.00
2023-02-02T06:29:26.451Z,100.00
2023-02-02T06:33:29.419Z,100.00
2023-02-02T06:37:34.398Z,100.00
2023-02-02T06:41:37.432Z,100.00
2023-02-02T06:45:40.490Z,100.00
2023-02-02T06:49:43.431Z,100.00
2023-02-02T06:53:49.754Z,100.00
2023-02-02T06:57:58.100Z,100.00
2023-02-02T07:02:03.881Z,100.00
2023-02-02T07:06:14.753Z,100.00
2023-02-02T07:11:13.236Z,100.00
2023-02-02T07:14:43.622Z,100.00
2023-02-02T07:18:49.853Z,100.00
2023-02-02T07:22:53.092Z,100.00
2023-02-02T07:27:00.338Z,100.00
2023-02-02T07:31:13.677Z,100.00
2023-02-02T07:35:17.279Z,100.00
2023-02-02T07:39:20.555Z,100.00
2023-02-02T07:43:25.111Z,100.00
2023-02-02T07:47:28.130Z,100.00
2023-02-02T07:51:31.396Z,100.00
2023-02-02T07:55:34.492Z,100.00
2023-02-02T07:59:38.702Z,100.00
2023-02-02T08:03:43.183Z,100.00
2023-02-02T08:07:46.328Z,100.00
2023-02-02T08:11:49.359Z,100.00
2023-02-02T08:15:53.665Z,100.00
2023-02-02T08:19:58.365Z,100.00
2023-02-02T08:24:02.406Z,100.00
2023-02-02T08:28:06.586Z,100.00
2023-02-02T08:32:11.228Z,100.00
2023-02-02T08:36:15.732Z,100.00
2023-02-02T08:40:19.668Z,100.00
2023-02-02T08:44:22.849Z,100.00
2023-02-02T08:48:29.809Z,100.00
2023-02-02T08:52:34.928Z,100.00
2023-02-02T08:56:37.807Z,100.00
2023-02-02T09:00:40.997Z,100.00
2023-02-02T09:04:47.283Z,100.00
2023-02-02T09:08:50.371Z,100.00
2023-02-02T09:12:53.669Z,100.00
2023-02-02T09:16:56.720Z,100.00
2023-02-02T09:21:04.421Z,100.00
2023-02-02T09:25:08.069Z,100.00
2023-02-02T09:29:15.299Z,100.00
2023-02-02T09:33:18.396Z,100.00
2023-02-02T09:37:22.971Z,100.00
2023-02-02T09:41:56.281Z,100.00
2023-02-02T09:46:10.486Z,100.00
2023-02-02T09:50:19.948Z,100.00
2023-02-02T09:54:30.164Z,100.00
2023-02-02T09:58:36.063Z,100.00
2023-02-02T10:02:45.224Z,100.00
2023-02-02T10:06:52.059Z,100.00
2023-02-02T10:10:56.584Z,100.00
2023-02-02T10:15:06.713Z,100.00
2023-02-02T10:19:14.147Z,100.00
2023-02-02T10:23:30.768Z,100.00
2023-02-02T10:27:44.911Z,100.00
2023-02-02T10:32:03.451Z,100.00
2023-02-02T10:36:17.633Z,100.00
2023-02-02T10:40:34.631Z,100.00
2023-02-02T10:44:46.852Z,100.00
2023-02-02T10:48:53.073Z,100.00
2023-02-02T10:53:01.648Z,100.00
2023-02-02T10:57:09.088Z,100.00
2023-02-02T11:01:18.392Z,100.00
2023-02-02T11:05:41.880Z,100.00
2023-02-02T11:09:46.884Z,100.00
2023-02-02T11:13:55.185Z,100.00
2023-02-02T11:18:16.085Z,100.00
2023-02-02T11:22:28.920Z,100.00
2023-02-02T11:26:44.795Z,100.00
2023-02-02T11:30:52.623Z,100.00
2023-02-02T11:35:17.466Z,100.00
2023-02-02T11:39:22.571Z,100.00
2023-02-02T11:43:30.621Z,100.00
2023-02-02T11:47:35.173Z,100.00
2023-02-02T11:51:39.844Z,100.00
2023-02-02T11:55:45.617Z,100.00
2023-02-02T11:59:52.517Z,100.00
2023-02-02T12:03:57.370Z,100.00
2023-02-02T12:08:02.519Z,100.00
2023-02-02T12:12:20.916Z,100.00
2023-02-02T12:16:38.437Z,100.00
2023-02-02T12:20:50.965Z,100.00
2023-02-02T12:25:00.390Z,100.00
2023-02-02T12:29:30.990Z,100.00
2023-02-02T12:33:42.541Z,100.00
2023-02-02T12:37:55.754Z,100.00
2023-02-02T12:42:22.031Z,100.00
2023-02-02T12:46:48.240Z,100.00
2023-02-02T12:51:01.217Z,100.00
2023-02-02T12:55:24.933Z,100.00
2023-02-02T12:59:48.888Z,100.00
2023-02-02T13:04:07.438Z,98.70
2023-02-02T13:08:14.465Z,100.00
2023-02-02T13:12:21.972Z,96.40
2023-02-02T13:16:33.097Z,99.84
2023-02-02T13:20:45.316Z,99.98
2023-02-02T13:24:53.136Z,100.00
2023-02-02T13:29:01.405Z,98.89
2023-02-02T13:33:12.977Z,99.97
2023-02-02T13:37:23.332Z,97.67
2023-02-02T13:41:27.276Z,97.71
2023-02-02T13:45:52.492Z,98.72
2023-02-02T13:50:05.911Z,99.14
2023-02-02T13:54:51.036Z,97.93
2023-02-02T13:59:16.840Z,97.44
2023-02-02T14:03:38.659Z,100.00
2023-02-02T14:07:45.331Z,100.00
2023-02-02T14:11:58.751Z,100.00
2023-02-02T14:16:05.597Z,100.00
2023-02-02T14:20:45.042Z,100.00
2023-02-02T14:24:51.976Z,100.00
2023-02-02T14:28:54.931Z,100.00
2023-02-02T14:33:39.673Z,100.00
2023-02-02T14:37:53.041Z,98.38
2023-02-02T14:42:36.706Z,99.27
2023-02-02T14:46:44.573Z,99.40
2023-02-02T14:50:52.108Z,100.00
2023-02-02T14:54:55.029Z,99.49
2023-02-02T14:59:03.005Z,100.00
2023-02-02T15:03:39.752Z,100.00
2023-02-02T15:07:54.646Z,100.00
2023-02-02T15:12:17.052Z,100.00
2023-02-02T15:16:29.059Z,100.00
2023-02-02T15:20:36.444Z,100.00
2023-02-02T15:24:41.715Z,100.00
2023-02-02T15:28:58.546Z,100.00
2023-02-02T15:33:11.954Z,100.00
2023-02-02T15:37:21.667Z,100.00
2023-02-02T15:41:28.560Z,100.00
2023-02-02T15:45:44.808Z,96.39
2023-02-02T15:49:57.332Z,95.08
2023-02-02T15:54:01.618Z,95.77
2023-02-02T15:58:05.276Z,96.04
2023-02-02T16:02:26.465Z,96.88
2023-02-02T16:06:34.819Z,99.76
2023-02-02T16:10:37.807Z,100.00
2023-02-02T16:14:42.882Z,100.00
2023-02-02T16:18:47.584Z,100.00
2023-02-02T16:22:52.830Z,100.00
2023-02-02T16:26:59.282Z,100.00
2023-02-02T16:31:03.736Z,100.00
2023-02-02T16:35:09.910Z,100.00
2023-02-02T16:39:26.016Z,100.00
2023-02-02T16:43:30.562Z,100.00
2023-02-02T16:47:37.901Z,100.00
2023-02-02T16:51:43.307Z,100.00
2023-02-02T16:55:51.555Z,100.00
2023-02-02T16:59:57.965Z,100.00
2023-02-02T17:04:02.324Z,100.00
2023-02-02T17:08:09.466Z,100.00
2023-02-02T17:12:35.188Z,100.00
2023-02-02T17:16:38.574Z,100.00
2023-02-02T17:20:43.366Z,100.00
2023-02-02T17:24:48.172Z,100.00
2023-02-02T17:28:57.309Z,100.00
2023-02-02T17:33:00.581Z,100.00
2023-02-02T17:37:03.447Z,99.36
2023-02-02T17:41:07.882Z,99.32
2023-02-02T17:45:22.631Z,99.78
2023-02-02T17:49:25.842Z,100.00
2023-02-02T17:53:33.375Z,100.00
2023-02-02T17:57:38.397Z,100.00
2023-02-02T18:01:46.657Z,99.14
2023-02-02T18:05:50.405Z,99.52
2023-02-02T18:09:55.702Z,99.57
2023-02-02T18:13:59.166Z,99.68
2023-02-02T18:18:04.337Z,98.25
2023-02-02T18:22:10.642Z,97.34
2023-02-02T18:26:19.711Z,97.86
2023-02-02T18:30:25.944Z,97.39
2023-02-02T18:34:32.673Z,97.60
2023-02-02T18:38:36.165Z,97.26
2023-02-02T18:42:40.055Z,96.60
2023-02-02T18:46:43.349Z,96.98
2023-02-02T18:50:48.291Z,97.00
2023-02-02T18:54:54.414Z,96.32
2023-02-02T18:58:58.892Z,96.89
2023-02-02T19:03:04.341Z,95.31
2023-02-02T19:07:26.366Z,95.74
2023-02-02T19:11:39.207Z,96.10
2023-02-02T19:15:45.037Z,96.73
2023-02-02T19:19:48.258Z,97.29
2023-02-02T19:23:52.994Z,97.13
2023-02-02T19:27:56.284Z,98.13
2023-02-02T19:32:02.981Z,99.20
2023-02-02T19:36:07.503Z,99.11
2023-02-02T19:40:21.346Z,98.87
2023-02-02T19:44:27.099Z,98.99
2023-02-02T19:48:36.729Z,99.33
2023-02-02T19:52:40.644Z,99.49
2023-02-02T19:56:45.284Z,98.62
2023-02-02T20:00:49.906Z,98.55
2023-02-02T20:05:03.920Z,99.13
2023-02-02T20:09:15.695Z,98.68
2023-02-02T20:13:22.283Z,98.57
2023-02-02T20:17:32.944Z,99.06
2023-02-02T20:21:40.183Z,99.33
2023-02-02T20:25:44.469Z,98.08
2023-02-02T20:29:50.634Z,98.26
2023-02-02T20:33:58.379Z,98.53
2023-02-02T20:38:03.627Z,98.11
2023-02-02T20:42:07.341Z,99.75
2023-02-02T20:46:11.992Z,100.00
2023-02-02T20:50:19.935Z,100.00
2023-02-02T20:54:23.436Z,100.00
2023-02-02T20:58:26.617Z,100.00
2023-02-02T21:02:31.377Z,100.00
2023-02-02T21:06:34.741Z,100.00
2023-02-02T21:10:38.064Z,100.00
2023-02-02T21:14:41.705Z,99.29
2023-02-02T21:18:47.536Z,99.60
2023-02-02T21:22:51.195Z,99.60
2023-02-02T21:26:54.367Z,99.40
2023-02-02T21:31:02.709Z,99.20
2023-02-02T21:35:08.035Z,98.10
2023-02-02T21:39:21.962Z,96.76
2023-02-02T21:43:28.137Z,96.51
2023-02-02T21:47:35.279Z,95.88
2023-02-02T21:51:39.693Z,96.41
2023-02-02T21:55:46.458Z,96.36
2023-02-02T21:59:52.565Z,96.10
2023-02-02T22:03:55.551Z,96.46
2023-02-02T22:08:00.562Z,97.22
2023-02-02T22:12:11.265Z,97.37
2023-02-02T22:16:19.039Z,97.17
2023-02-02T22:20:33.478Z,96.83
2023-02-02T22:24:38.371Z,97.26
2023-02-02T22:28:41.715Z,96.84
2023-02-02T22:32:44.864Z,97.10
2023-02-02T22:36:48.255Z,96.16
2023-02-02T22:40:53.912Z,97.41
2023-02-02T22:44:57.193Z,98.29
2023-02-02T22:49:00.655Z,98.92
2023-02-02T22:53:04.301Z,98.84
2023-02-02T22:57:08.903Z,99.01
2023-02-02T23:01:13.862Z,99.37
2023-02-02T23:05:20.407Z,100.00
2023-02-02T23:09:23.867Z,98.72
2023-02-02T23:13:28.354Z,98.22
2023-02-02T23:17:32.075Z,98.18
2023-02-02T23:21:35.079Z,96.98
2023-02-02T23:25:38.161Z,96.73
2023-02-02T23:29:43.855Z,95.26
2023-02-02T23:33:47.237Z,95.76
2023-02-02T23:37:50.534Z,95.58
2023-02-02T23:41:54.035Z,96.73
2023-02-02T23:45:59.103Z,96.63
2023-02-02T23:50:04.628Z,95.97
2023-02-02T23:54:10.660Z,96.41
2023-02-02T23:58:14.383Z,95.59
